| Date | Time | Temp. (oF) | Dew Point (oF) | Rel. Hum. (%) | Press. (in.) | Wind Dir. (deg.) | Wind Speed (mph) | Hourly Rainfall (i n.) |
|
|---|---|---|---|---|---|---|---|---|---|
| 1 | 08/28 | 24:00 | 72 | 68 | 89 | 30.10 | 290 | 0 | 0.00 |
| 2 | 08/27 | 23:00 | 73 | 69 | 90 | 30.10 | 290 | 4 | 0.00 |
| 3 | 08/27 | 22:00 | 73 | 69 | 88 | 30.10 | 290 | 0 | 0.00 |
| 4 | 08/27 | 21:00 | 74 | 70 | 88 | 30.09 | 330 | 0 | 0.00 |
| 5 | 08/27 | 20:00 | 74 | 69 | 86 | 30.09 | 150 | 1 | 0.00 |
| 6 | 08/27 | 19:00 | 76 | 69 | 81 | 30.09 | 150 | 0 | 0.00 |
| 7 | 08/27 | 18:00 | 77 | 68 | 75 | 30.10 | 150 | 2 | 0.00 |
| 8 | 08/27 | 17:00 | 80 | 70 | 73 | 30.11 | 290 | 6 | 0.01 |
| 9 | 08/27 | 16:00 | 81 | 68 | 67 | 30.11 | 310 | 4 | 0.00 |
| 10 | 08/27 | 15:00 | 81 | 68 | 67 | 30.12 | 310 | 4 | 0.00 |
| 11 | 08/27 | 14:00 | 81 | 69 | 69 | 30.12 | 270 | 7 | 0.00 |
| 12 | 08/27 | 13:00 | 78 | 70 | 78 | 30.11 | 120 | 1 | 0.00 |
| 13 | 08/27 | 12:00 | 76 | 70 | 82 | 30.11 | 20 | 2 | 0.00 |
| 14 | 08/27 | 11:00 | 74 | 69 | 86 | 30.11 | 340 | 2 | 0.00 |
| 15 | 08/27 | 10:00 | 73 | 69 | 90 | 30.10 | 310 | 4 | 0.00 |
| 16 | 08/27 | 09:00 | 72 | 70 | 96 | 30.07 | 260 | 9 | 0.00 |
| 17 | 08/27 | 08:00 | 70 | 69 | 97 | 30.07 | 270 | 2 | 0.00 |
| 18 | 08/27 | 07:00 | 70 | 69 | 97 | 30.06 | 130 | 0 | 0.00 |
| 19 | 08/27 | 06:00 | 70 | 69 | 97 | 30.05 | 290 | 0 | 0.00 |
| 20 | 08/27 | 05:00 | 70 | 69 | 97 | 30.05 | 290 | 0 | 0.00 |
| 21 | 08/27 | 04:00 | 71 | 70 | 97 | 30.03 | 290 | 0 | 0.00 |
| 22 | 08/27 | 03:00 | 71 | 70 | 97 | 30.04 | 290 | 0 | 0.00 |
| 23 | 08/27 | 02:00 | 70 | 69 | 97 | 30.04 | 290 | 0 | 0.00 |
| 24 | 08/27 | 01:00 | 71 | 70 | 97 | 30.02 | 310 | 2 | 0.00 |